sensor_id;sensor_type;location;lat;lon;timestamp;temperature;humidity
22065;DHT22;11197;53.110;8.468;2023-10-13T00:00:33;14.60;99.90
22065;DHT22;11197;53.110;8.468;2023-10-13T00:03:04;14.60;99.90
22065;DHT22;11197;53.110;8.468;2023-10-13T00:05:31;14.60;99.90
22065;DHT22;11197;53.110;8.468;2023-10-13T00:08:01;14.70;99.90
22065;DHT22;11197;53.110;8.468;2023-10-13T00:10:31;14.70;99.90
22065;DHT22;11197;53.110;8.468;2023-10-13T00:12:57;14.70;99.90
22065;DHT22;11197;53.110;8.468;2023-10-13T00:15:32;14.70;99.90
22065;DHT22;11197;53.110;8.468;2023-10-13T00:18:07;14.70;99.90
22065;DHT22;11197;53.110;8.468;2023-10-13T00:20:41;14.80;99.90
22065;DHT22;11197;53.110;8.468;2023-10-13T00:23:14;14.80;99.90
22065;DHT22;11197;53.110;8.468;2023-10-13T00:25:40;14.80;99.90
22065;DHT22;11197;53.110;8.468;2023-10-13T00:28:16;14.90;99.90
22065;DHT22;11197;53.110;8.468;2023-10-13T00:30:52;14.90;99.90
22065;DHT22;11197;53.110;8.468;2023-10-13T00:33:27;14.90;99.90
22065;DHT22;11197;53.110;8.468;2023-10-13T00:35:52;14.90;99.90
22065;DHT22;11197;53.110;8.468;2023-10-13T00:38:18;14.90;99.90
22065;DHT22;11197;53.110;8.468;2023-10-13T00:40:45;14.90;99.90
22065;DHT22;11197;53.110;8.468;2023-10-13T00:43:18;15.00;99.90
22065;DHT22;11197;53.110;8.468;2023-10-13T00:45:45;15.00;99.90
22065;DHT22;11197;53.110;8.468;2023-10-13T00:48:25;15.00;99.90
22065;DHT22;11197;53.110;8.468;2023-10-13T00:51:06;15.00;99.90
22065;DHT22;11197;53.110;8.468;2023-10-13T00:53:44;15.00;99.90
22065;DHT22;11197;53.110;8.468;2023-10-13T00:56:17;15.10;99.90
22065;DHT22;11197;53.110;8.468;2023-10-13T00:58:53;15.10;99.90
22065;DHT22;11197;53.110;8.468;2023-10-13T01:01:20;15.10;99.90
22065;DHT22;11197;53.110;8.468;2023-10-13T01:03:55;15.10;99.90
22065;DHT22;11197;53.110;8.468;2023-10-13T01:06:22;15.10;99.90
22065;DHT22;11197;53.110;8.468;2023-10-13T01:09:01;15.20;99.90
22065;DHT22;11197;53.110;8.468;2023-10-13T01:11:39;15.20;99.90
22065;DHT22;11197;53.110;8.468;2023-10-13T01:14:06;15.20;99.90
22065;DHT22;11197;53.110;8.468;2023-10-13T01:16:31;15.20;99.90
22065;DHT22;11197;53.110;8.468;2023-10-13T01:18:58;15.20;99.90
22065;DHT22;11197;53.110;8.468;2023-10-13T01:21:30;15.20;99.90
22065;DHT22;11197;53.110;8.468;2023-10-13T01:23:58;15.20;99.90
22065;DHT22;11197;53.110;8.468;2023-10-13T01:26:23;15.30;99.90
22065;DHT22;11197;53.110;8.468;2023-10-13T01:28:58;15.30;99.90
22065;DHT22;11197;53.110;8.468;2023-10-13T01:31:24;15.30;99.90
22065;DHT22;11197;53.110;8.468;2023-10-13T01:33:53;15.30;99.90
22065;DHT22;11197;53.110;8.468;2023-10-13T01:36:26;15.30;99.90
22065;DHT22;11197;53.110;8.468;2023-10-13T01:38:52;15.40;99.90
22065;DHT22;11197;53.110;8.468;2023-10-13T01:41:19;15.40;99.90
22065;DHT22;11197;53.110;8.468;2023-10-13T01:43:45;15.40;99.90
22065;DHT22;11197;53.110;8.468;2023-10-13T01:46:11;15.40;99.90
22065;DHT22;11197;53.110;8.468;2023-10-13T01:48:40;15.50;99.90
22065;DHT22;11197;53.110;8.468;2023-10-13T01:51:07;15.40;99.90
22065;DHT22;11197;53.110;8.468;2023-10-13T01:53:37;15.50;99.90
22065;DHT22;11197;53.110;8.468;2023-10-13T01:56:04;15.50;99.90
22065;DHT22;11197;53.110;8.468;2023-10-13T01:58:37;15.50;99.90
22065;DHT22;11197;53.110;8.468;2023-10-13T02:01:02;15.50;99.90
22065;DHT22;11197;53.110;8.468;2023-10-13T02:03:29;15.60;99.90
22065;DHT22;11197;53.110;8.468;2023-10-13T02:05:55;15.60;99.90
22065;DHT22;11197;53.110;8.468;2023-10-13T02:08:24;15.60;99.90
22065;DHT22;11197;53.110;8.468;2023-10-13T02:10:55;15.60;99.90
22065;DHT22;11197;53.110;8.468;2023-10-13T02:13:22;15.60;99.90
22065;DHT22;11197;53.110;8.468;2023-10-13T02:15:49;15.60;99.90
22065;DHT22;11197;53.110;8.468;2023-10-13T02:18:20;15.70;99.90
22065;DHT22;11197;53.110;8.468;2023-10-13T02:20:56;15.60;99.90
22065;DHT22;11197;53.110;8.468;2023-10-13T02:23:29;15.70;99.90
22065;DHT22;11197;53.110;8.468;2023-10-13T02:26:01;15.70;99.90
22065;DHT22;11197;53.110;8.468;2023-10-13T02:28:36;15.70;99.90
22065;DHT22;11197;53.110;8.468;2023-10-13T02:31:03;15.80;99.90
22065;DHT22;11197;53.110;8.468;2023-10-13T02:33:30;15.70;99.90
22065;DHT22;11197;53.110;8.468;2023-10-13T02:36:01;15.80;99.90
22065;DHT22;11197;53.110;8.468;2023-10-13T02:38:33;15.80;99.90
22065;DHT22;11197;53.110;8.468;2023-10-13T02:41:14;15.80;99.90
22065;DHT22;11197;53.110;8.468;2023-10-13T02:43:53;15.80;99.90
22065;DHT22;11197;53.110;8.468;2023-10-13T02:46:20;15.90;99.90
22065;DHT22;11197;53.110;8.468;2023-10-13T02:48:55;15.90;99.90
22065;DHT22;11197;53.110;8.468;2023-10-13T02:51:23;15.90;99.90
22065;DHT22;11197;53.110;8.468;2023-10-13T02:54:01;15.90;99.90
22065;DHT22;11197;53.110;8.468;2023-10-13T02:56:36;15.90;99.90
22065;DHT22;11197;53.110;8.468;2023-10-13T02:59:02;15.90;99.90
22065;DHT22;11197;53.110;8.468;2023-10-13T03:01:35;15.90;99.90
22065;DHT22;11197;53.110;8.468;2023-10-13T03:04:02;15.90;99.90
22065;DHT22;11197;53.110;8.468;2023-10-13T03:06:29;16.00;99.90
22065;DHT22;11197;53.110;8.468;2023-10-13T03:09:01;16.00;99.90
22065;DHT22;11197;53.110;8.468;2023-10-13T03:11:43;16.00;99.90
22065;DHT22;11197;53.110;8.468;2023-10-13T03:14:10;16.00;99.90
22065;DHT22;11197;53.110;8.468;2023-10-13T03:16:53;16.00;99.90
22065;DHT22;11197;53.110;8.468;2023-10-13T03:19:19;16.00;99.90
22065;DHT22;11197;53.110;8.468;2023-10-13T03:21:45;16.00;99.90
22065;DHT22;11197;53.110;8.468;2023-10-13T03:24:21;16.10;99.90
22065;DHT22;11197;53.110;8.468;2023-10-13T03:27:02;16.10;99.90
22065;DHT22;11197;53.110;8.468;2023-10-13T03:29:39;16.10;99.90
22065;DHT22;11197;53.110;8.468;2023-10-13T03:32:20;16.10;99.90
22065;DHT22;11197;53.110;8.468;2023-10-13T03:34:46;16.10;99.90
22065;DHT22;11197;53.110;8.468;2023-10-13T03:37:32;16.10;99.90
22065;DHT22;11197;53.110;8.468;2023-10-13T03:40:05;16.10;99.90
22065;DHT22;11197;53.110;8.468;2023-10-13T03:42:50;16.10;99.90
22065;DHT22;11197;53.110;8.468;2023-10-13T03:45:36;16.20;99.90
22065;DHT22;11197;53.110;8.468;2023-10-13T03:48:06;16.10;99.90
22065;DHT22;11197;53.110;8.468;2023-10-13T03:50:39;16.10;99.90
22065;DHT22;11197;53.110;8.468;2023-10-13T03:53:27;16.20;99.90
22065;DHT22;11197;53.110;8.468;2023-10-13T03:56:02;16.20;99.90
22065;DHT22;11197;53.110;8.468;2023-10-13T03:58:37;16.20;99.90
22065;DHT22;11197;53.110;8.468;2023-10-13T04:01:12;16.20;99.90
22065;DHT22;11197;53.110;8.468;2023-10-13T04:03:40;16.20;99.90
22065;DHT22;11197;53.110;8.468;2023-10-13T04:06:23;16.30;99.90
22065;DHT22;11197;53.110;8.468;2023-10-13T04:09:09;16.30;99.90
22065;DHT22;11197;53.110;8.468;2023-10-13T04:11:54;16.20;99.90
22065;DHT22;11197;53.110;8.468;2023-10-13T04:17:13;16.20;99.90
22065;DHT22;11197;53.110;8.468;2023-10-13T04:19:48;16.30;99.90
22065;DHT22;11197;53.110;8.468;2023-10-13T04:22:35;16.20;99.90
22065;DHT22;11197;53.110;8.468;2023-10-13T04:27:57;16.20;99.90
22065;DHT22;11197;53.110;8.468;2023-10-13T04:30:38;16.30;99.90
22065;DHT22;11197;53.110;8.468;2023-10-13T04:33:29;16.20;99.90
22065;DHT22;11197;53.110;8.468;2023-10-13T04:36:13;16.30;99.90
22065;DHT22;11197;53.110;8.468;2023-10-13T04:38:46;16.30;99.90
22065;DHT22;11197;53.110;8.468;2023-10-13T04:41:18;16.20;99.90
22065;DHT22;11197;53.110;8.468;2023-10-13T04:43:48;16.30;99.90
22065;DHT22;11197;53.110;8.468;2023-10-13T04:46:25;16.30;99.90
22065;DHT22;11197;53.110;8.468;2023-10-13T04:49:09;16.30;99.90
22065;DHT22;11197;53.110;8.468;2023-10-13T04:51:51;16.30;99.90
22065;DHT22;11197;53.110;8.468;2023-10-13T04:54:28;16.30;99.90
22065;DHT22;11197;53.110;8.468;2023-10-13T04:57:13;16.20;99.90
22065;DHT22;11197;53.110;8.468;2023-10-13T04:59:57;16.30;99.90
22065;DHT22;11197;53.110;8.468;2023-10-13T05:02:29;16.30;99.90
22065;DHT22;11197;53.110;8.468;2023-10-13T05:05:08;16.30;99.90
22065;DHT22;11197;53.110;8.468;2023-10-13T05:07:56;16.30;99.90
22065;DHT22;11197;53.110;8.468;2023-10-13T05:10:40;16.30;99.90
22065;DHT22;11197;53.110;8.468;2023-10-13T05:13:24;16.30;99.90
22065;DHT22;11197;53.110;8.468;2023-10-13T05:16:09;16.30;99.90
22065;DHT22;11197;53.110;8.468;2023-10-13T05:18:53;16.30;99.90
22065;DHT22;11197;53.110;8.468;2023-10-13T05:21:37;16.30;99.90
22065;DHT22;11197;53.110;8.468;2023-10-13T05:24:21;16.30;99.90
22065;DHT22;11197;53.110;8.468;2023-10-13T05:27:05;16.30;99.90
22065;DHT22;11197;53.110;8.468;2023-10-13T05:29:50;16.40;99.90
22065;DHT22;11197;53.110;8.468;2023-10-13T05:32:34;16.30;99.90
22065;DHT22;11197;53.110;8.468;2023-10-13T05:35:22;16.30;99.90
22065;DHT22;11197;53.110;8.468;2023-10-13T05:38:06;16.30;99.90
22065;DHT22;11197;53.110;8.468;2023-10-13T05:40:58;16.30;99.90
22065;DHT22;11197;53.110;8.468;2023-10-13T05:43:43;16.30;99.90
22065;DHT22;11197;53.110;8.468;2023-10-13T05:46:28;16.30;99.90
22065;DHT22;11197;53.110;8.468;2023-10-13T05:49:07;16.30;99.90
22065;DHT22;11197;53.110;8.468;2023-10-13T05:51:42;16.30;99.90
22065;DHT22;11197;53.110;8.468;2023-10-13T05:54:34;16.40;99.90
22065;DHT22;11197;53.110;8.468;2023-10-13T05:57:18;16.40;99.90
22065;DHT22;11197;53.110;8.468;2023-10-13T06:00:03;16.40;99.90
22065;DHT22;11197;53.110;8.468;2023-10-13T06:02:47;16.30;99.90
22065;DHT22;11197;53.110;8.468;2023-10-13T06:05:31;16.40;99.90
22065;DHT22;11197;53.110;8.468;2023-10-13T06:08:15;16.40;99.90
22065;DHT22;11197;53.110;8.468;2023-10-13T06:11:03;16.40;99.90
22065;DHT22;11197;53.110;8.468;2023-10-13T06:13:48;16.40;99.90
22065;DHT22;11197;53.110;8.468;2023-10-13T06:16:32;16.40;99.90
22065;DHT22;11197;53.110;8.468;2023-10-13T06:19:16;16.40;99.90
22065;DHT22;11197;53.110;8.468;2023-10-13T06:22:01;16.40;99.90
22065;DHT22;11197;53.110;8.468;2023-10-13T06:24:45;16.40;99.90
22065;DHT22;11197;53.110;8.468;2023-10-13T06:27:29;16.40;99.90
22065;DHT22;11197;53.110;8.468;2023-10-13T06:30:14;16.40;99.90
22065;DHT22;11197;53.110;8.468;2023-10-13T06:32:39;16.40;99.90
22065;DHT22;11197;53.110;8.468;2023-10-13T06:35:06;16.40;99.90
22065;DHT22;11197;53.110;8.468;2023-10-13T06:37:44;16.40;99.90
22065;DHT22;11197;53.110;8.468;2023-10-13T06:40:11;16.40;99.90
22065;DHT22;11197;53.110;8.468;2023-10-13T06:42:52;16.40;99.90
22065;DHT22;11197;53.110;8.468;2023-10-13T06:45:20;16.40;99.90
22065;DHT22;11197;53.110;8.468;2023-10-13T06:47:47;16.40;99.90
22065;DHT22;11197;53.110;8.468;2023-10-13T06:50:18;16.40;99.90
22065;DHT22;11197;53.110;8.468;2023-10-13T06:52:50;16.40;99.90
22065;DHT22;11197;53.110;8.468;2023-10-13T06:55:16;16.40;99.90
22065;DHT22;11197;53.110;8.468;2023-10-13T06:57:46;16.40;99.90
22065;DHT22;11197;53.110;8.468;2023-10-13T07:00:12;16.40;99.90
22065;DHT22;11197;53.110;8.468;2023-10-13T07:02:53;16.40;99.90
22065;DHT22;11197;53.110;8.468;2023-10-13T07:05:19;16.40;99.90
22065;DHT22;11197;53.110;8.468;2023-10-13T07:07:45;16.40;99.90
22065;DHT22;11197;53.110;8.468;2023-10-13T07:10:12;16.40;99.90
22065;DHT22;11197;53.110;8.468;2023-10-13T07:12:47;16.40;99.90
22065;DHT22;11197;53.110;8.468;2023-10-13T07:15:21;16.40;99.90
22065;DHT22;11197;53.110;8.468;2023-10-13T07:17:53;16.40;99.90
22065;DHT22;11197;53.110;8.468;2023-10-13T07:20:34;16.40;99.90
22065;DHT22;11197;53.110;8.468;2023-10-13T07:23:03;16.40;99.90
22065;DHT22;11197;53.110;8.468;2023-10-13T07:25:36;16.50;99.90
22065;DHT22;11197;53.110;8.468;2023-10-13T07:28:03;16.40;99.90
22065;DHT22;11197;53.110;8.468;2023-10-13T07:30:29;16.50;99.90
22065;DHT22;11197;53.110;8.468;2023-10-13T07:32:57;16.50;99.90
22065;DHT22;11197;53.110;8.468;2023-10-13T07:35:25;16.50;99.90
22065;DHT22;11197;53.110;8.468;2023-10-13T07:37:52;16.50;99.90
22065;DHT22;11197;53.110;8.468;2023-10-13T07:40:22;16.50;99.90
22065;DHT22;11197;53.110;8.468;2023-10-13T07:43:08;16.50;99.90
22065;DHT22;11197;53.110;8.468;2023-10-13T07:45:38;16.50;99.90
22065;DHT22;11197;53.110;8.468;2023-10-13T07:48:07;16.50;99.90
22065;DHT22;11197;53.110;8.468;2023-10-13T07:51:02;16.50;99.90
22065;DHT22;11197;53.110;8.468;2023-10-13T07:53:29;16.50;99.90
22065;DHT22;11197;53.110;8.468;2023-10-13T07:56:00;16.60;99.90
22065;DHT22;11197;53.110;8.468;2023-10-13T07:58:31;16.60;99.90
22065;DHT22;11197;53.110;8.468;2023-10-13T08:00:57;16.60;99.90
22065;DHT22;11197;53.110;8.468;2023-10-13T08:03:35;16.70;99.90
22065;DHT22;11197;53.110;8.468;2023-10-13T08:06:15;16.70;99.90
22065;DHT22;11197;53.110;8.468;2023-10-13T08:08:40;16.70;99.90
22065;DHT22;11197;53.110;8.468;2023-10-13T08:11:11;16.70;99.90
22065;DHT22;11197;53.110;8.468;2023-10-13T08:13:53;16.70;99.90
22065;DHT22;11197;53.110;8.468;2023-10-13T08:16:29;16.80;99.90
22065;DHT22;11197;53.110;8.468;2023-10-13T08:19:17;16.80;99.90
22065;DHT22;11197;53.110;8.468;2023-10-13T08:21:47;16.90;99.90
22065;DHT22;11197;53.110;8.468;2023-10-13T08:24:33;16.90;99.90
22065;DHT22;11197;53.110;8.468;2023-10-13T08:27:05;16.90;99.90
22065;DHT22;11197;53.110;8.468;2023-10-13T08:29:44;16.90;99.90
22065;DHT22;11197;53.110;8.468;2023-10-13T08:32:39;16.90;99.90
22065;DHT22;11197;53.110;8.468;2023-10-13T08:35:20;16.90;99.90
22065;DHT22;11197;53.110;8.468;2023-10-13T08:37:55;17.00;99.90
22065;DHT22;11197;53.110;8.468;2023-10-13T08:40:24;17.00;99.90
22065;DHT22;11197;53.110;8.468;2023-10-13T08:43:12;17.00;99.90
22065;DHT22;11197;53.110;8.468;2023-10-13T08:45:42;17.00;99.90
22065;DHT22;11197;53.110;8.468;2023-10-13T08:48:10;17.10;99.90
22065;DHT22;11197;53.110;8.468;2023-10-13T08:50:48;17.10;99.90
22065;DHT22;11197;53.110;8.468;2023-10-13T08:58:39;17.10;99.90
22065;DHT22;11197;53.110;8.468;2023-10-13T09:03:58;17.10;99.90
22065;DHT22;11197;53.110;8.468;2023-10-13T09:06:47;17.10;99.90
22065;DHT22;11197;53.110;8.468;2023-10-13T09:09:27;17.10;99.90
22065;DHT22;11197;53.110;8.468;2023-10-13T09:11:55;17.10;99.90
22065;DHT22;11197;53.110;8.468;2023-10-13T09:14:34;17.10;99.90
22065;DHT22;11197;53.110;8.468;2023-10-13T09:17:07;17.10;99.90
22065;DHT22;11197;53.110;8.468;2023-10-13T09:19:49;17.10;99.90
22065;DHT22;11197;53.110;8.468;2023-10-13T09:24:59;17.10;99.90
22065;DHT22;11197;53.110;8.468;2023-10-13T09:27:30;17.20;99.90
22065;DHT22;11197;53.110;8.468;2023-10-13T09:30:01;17.20;99.90
22065;DHT22;11197;53.110;8.468;2023-10-13T09:33:02;17.20;99.90
22065;DHT22;11197;53.110;8.468;2023-10-13T09:35:30;17.20;99.90
22065;DHT22;11197;53.110;8.468;2023-10-13T09:38:00;17.30;99.90
22065;DHT22;11197;53.110;8.468;2023-10-13T09:40:29;17.30;99.90
22065;DHT22;11197;53.110;8.468;2023-10-13T09:43:02;17.30;99.90
22065;DHT22;11197;53.110;8.468;2023-10-13T09:45:34;17.40;99.90
22065;DHT22;11197;53.110;8.468;2023-10-13T09:48:12;17.40;99.90
22065;DHT22;11197;53.110;8.468;2023-10-13T09:50:48;17.50;99.90
22065;DHT22;11197;53.110;8.468;2023-10-13T09:53:15;17.50;99.90
22065;DHT22;11197;53.110;8.468;2023-10-13T10:01:24;17.70;99.90
22065;DHT22;11197;53.110;8.468;2023-10-13T10:04:10;17.70;99.90
22065;DHT22;11197;53.110;8.468;2023-10-13T10:06:39;17.80;99.90
22065;DHT22;11197;53.110;8.468;2023-10-13T10:09:11;17.80;99.90
22065;DHT22;11197;53.110;8.468;2023-10-13T10:12:16;17.90;99.90
22065;DHT22;11197;53.110;8.468;2023-10-13T10:17:29;18.00;99.90
22065;DHT22;11197;53.110;8.468;2023-10-13T10:19:58;18.10;99.90
22065;DHT22;11197;53.110;8.468;2023-10-13T10:22:33;18.10;99.90
22065;DHT22;11197;53.110;8.468;2023-10-13T10:25:05;18.20;99.90
22065;DHT22;11197;53.110;8.468;2023-10-13T10:28:01;18.30;99.90
22065;DHT22;11197;53.110;8.468;2023-10-13T10:30:38;18.30;99.90
22065;DHT22;11197;53.110;8.468;2023-10-13T10:33:05;18.40;99.90
22065;DHT22;11197;53.110;8.468;2023-10-13T10:35:42;18.40;99.90
22065;DHT22;11197;53.110;8.468;2023-10-13T10:38:11;18.50;99.90
22065;DHT22;11197;53.110;8.468;2023-10-13T10:40:53;18.50;99.90
22065;DHT22;11197;53.110;8.468;2023-10-13T10:43:41;18.50;99.90
22065;DHT22;11197;53.110;8.468;2023-10-13T10:48:39;18.60;99.90
22065;DHT22;11197;53.110;8.468;2023-10-13T10:51:12;18.60;99.90
22065;DHT22;11197;53.110;8.468;2023-10-13T10:53:51;18.60;99.90
22065;DHT22;11197;53.110;8.468;2023-10-13T10:56:21;18.60;99.90
22065;DHT22;11197;53.110;8.468;2023-10-13T10:58:55;18.60;99.90
22065;DHT22;11197;53.110;8.468;2023-10-13T11:01:26;18.60;99.90
22065;DHT22;11197;53.110;8.468;2023-10-13T11:03:59;18.60;99.90
22065;DHT22;11197;53.110;8.468;2023-10-13T11:06:35;18.70;99.90
22065;DHT22;11197;53.110;8.468;2023-10-13T11:09:07;18.70;99.90
22065;DHT22;11197;53.110;8.468;2023-10-13T11:11:52;18.70;99.90
22065;DHT22;11197;53.110;8.468;2023-10-13T11:14:28;18.80;99.90
22065;DHT22;11197;53.110;8.468;2023-10-13T11:16:56;18.90;99.90
22065;DHT22;11197;53.110;8.468;2023-10-13T11:19:42;18.90;99.90
22065;DHT22;11197;53.110;8.468;2023-10-13T11:22:18;18.90;99.90
22065;DHT22;11197;53.110;8.468;2023-10-13T11:25:06;19.00;99.90
22065;DHT22;11197;53.110;8.468;2023-10-13T11:27:41;19.00;99.90
22065;DHT22;11197;53.110;8.468;2023-10-13T11:30:13;19.00;99.90
22065;DHT22;11197;53.110;8.468;2023-10-13T11:32:43;19.10;99.90
22065;DHT22;11197;53.110;8.468;2023-10-13T11:35:09;19.10;99.90
22065;DHT22;11197;53.110;8.468;2023-10-13T11:37:49;19.10;99.90
22065;DHT22;11197;53.110;8.468;2023-10-13T11:40:22;19.20;99.90
22065;DHT22;11197;53.110;8.468;2023-10-13T11:43:08;19.20;99.90
22065;DHT22;11197;53.110;8.468;2023-10-13T11:45:41;19.20;99.90
22065;DHT22;11197;53.110;8.468;2023-10-13T11:48:43;19.20;99.90
22065;DHT22;11197;53.110;8.468;2023-10-13T11:51:13;19.30;99.90
22065;DHT22;11197;53.110;8.468;2023-10-13T11:53:50;19.30;99.90
22065;DHT22;11197;53.110;8.468;2023-10-13T11:56:19;19.40;99.90
22065;DHT22;11197;53.110;8.468;2023-10-13T11:58:48;19.40;99.90
22065;DHT22;11197;53.110;8.468;2023-10-13T12:01:15;19.40;99.90
22065;DHT22;11197;53.110;8.468;2023-10-13T12:03:45;19.50;99.90
22065;DHT22;11197;53.110;8.468;2023-10-13T12:06:30;19.50;99.90
22065;DHT22;11197;53.110;8.468;2023-10-13T12:09:07;19.50;99.90
22065;DHT22;11197;53.110;8.468;2023-10-13T12:11:42;19.60;99.90
22065;DHT22;11197;53.110;8.468;2023-10-13T12:14:08;19.60;99.90
22065;DHT22;11197;53.110;8.468;2023-10-13T12:16:46;19.70;99.90
22065;DHT22;11197;53.110;8.468;2023-10-13T12:19:17;19.80;99.90
22065;DHT22;11197;53.110;8.468;2023-10-13T12:21:49;19.80;99.90
22065;DHT22;11197;53.110;8.468;2023-10-13T12:24:14;19.80;99.90
22065;DHT22;11197;53.110;8.468;2023-10-13T12:26:59;19.80;99.90
22065;DHT22;11197;53.110;8.468;2023-10-13T12:29:24;19.90;99.90
22065;DHT22;11197;53.110;8.468;2023-10-13T12:31:57;20.00;99.90
22065;DHT22;11197;53.110;8.468;2023-10-13T12:34:38;20.00;99.90
22065;DHT22;11197;53.110;8.468;2023-10-13T12:37:30;20.00;99.90
22065;DHT22;11197;53.110;8.468;2023-10-13T12:40:17;20.10;99.90
22065;DHT22;11197;53.110;8.468;2023-10-13T12:43:03;20.10;99.90
22065;DHT22;11197;53.110;8.468;2023-10-13T12:45:49;20.10;99.90
22065;DHT22;11197;53.110;8.468;2023-10-13T12:48:35;20.10;99.90
22065;DHT22;11197;53.110;8.468;2023-10-13T12:51:20;20.10;99.90
22065;DHT22;11197;53.110;8.468;2023-10-13T12:53:49;20.10;99.90
22065;DHT22;11197;53.110;8.468;2023-10-13T12:56:16;20.10;99.90
22065;DHT22;11197;53.110;8.468;2023-10-13T12:58:42;20.10;99.90
22065;DHT22;11197;53.110;8.468;2023-10-13T13:01:18;20.10;99.90
22065;DHT22;11197;53.110;8.468;2023-10-13T13:03:46;20.10;99.90
22065;DHT22;11197;53.110;8.468;2023-10-13T13:06:27;20.10;99.90
22065;DHT22;11197;53.110;8.468;2023-10-13T13:08:56;20.10;99.90
22065;DHT22;11197;53.110;8.468;2023-10-13T13:11:22;20.10;99.90
22065;DHT22;11197;53.110;8.468;2023-10-13T13:13:48;20.10;99.90
22065;DHT22;11197;53.110;8.468;2023-10-13T13:16:15;20.10;99.90
22065;DHT22;11197;53.110;8.468;2023-10-13T13:18:44;20.10;99.90
22065;DHT22;11197;53.110;8.468;2023-10-13T13:21:10;20.10;99.90
22065;DHT22;11197;53.110;8.468;2023-10-13T13:23:46;20.10;99.90
22065;DHT22;11197;53.110;8.468;2023-10-13T13:26:11;20.10;99.90
22065;DHT22;11197;53.110;8.468;2023-10-13T13:28:47;20.10;99.90
22065;DHT22;11197;53.110;8.468;2023-10-13T13:31:20;20.10;99.90
22065;DHT22;11197;53.110;8.468;2023-10-13T13:33:51;20.10;99.90
22065;DHT22;11197;53.110;8.468;2023-10-13T13:36:17;20.10;99.90
22065;DHT22;11197;53.110;8.468;2023-10-13T13:38:43;20.10;99.90
22065;DHT22;11197;53.110;8.468;2023-10-13T13:41:15;20.20;99.90
22065;DHT22;11197;53.110;8.468;2023-10-13T13:43:46;20.20;99.90
22065;DHT22;11197;53.110;8.468;2023-10-13T13:46:25;20.20;99.90
22065;DHT22;11197;53.110;8.468;2023-10-13T13:48:53;20.30;99.90
22065;DHT22;11197;53.110;8.468;2023-10-13T13:51:32;20.30;99.90
22065;DHT22;11197;53.110;8.468;2023-10-13T13:53:59;20.40;99.90
22065;DHT22;11197;53.110;8.468;2023-10-13T13:56:25;20.40;99.90
22065;DHT22;11197;53.110;8.468;2023-10-13T13:58:52;20.40;99.90
22065;DHT22;11197;53.110;8.468;2023-10-13T14:01:19;20.40;99.90
22065;DHT22;11197;53.110;8.468;2023-10-13T14:03:49;20.40;99.90
22065;DHT22;11197;53.110;8.468;2023-10-13T14:06:20;20.60;99.90
22065;DHT22;11197;53.110;8.468;2023-10-13T14:08:49;20.50;99.90
22065;DHT22;11197;53.110;8.468;2023-10-13T14:11:19;20.50;99.90
22065;DHT22;11197;53.110;8.468;2023-10-13T14:14:15;20.50;99.90
22065;DHT22;11197;53.110;8.468;2023-10-13T14:16:50;20.60;99.90
22065;DHT22;11197;53.110;8.468;2023-10-13T14:19:16;20.60;99.90
22065;DHT22;11197;53.110;8.468;2023-10-13T14:21:52;20.60;99.90
22065;DHT22;11197;53.110;8.468;2023-10-13T14:24:21;20.60;99.90
22065;DHT22;11197;53.110;8.468;2023-10-13T14:27:01;20.70;99.90
22065;DHT22;11197;53.110;8.468;2023-10-13T14:29:38;20.60;99.90
22065;DHT22;11197;53.110;8.468;2023-10-13T14:32:13;20.60;99.90
22065;DHT22;11197;53.110;8.468;2023-10-13T14:34:41;20.70;99.90
22065;DHT22;11197;53.110;8.468;2023-10-13T14:37:07;20.70;99.90
22065;DHT22;11197;53.110;8.468;2023-10-13T14:39:34;20.70;99.90
22065;DHT22;11197;53.110;8.468;2023-10-13T14:42:04;20.70;99.90
22065;DHT22;11197;53.110;8.468;2023-10-13T14:44:33;20.80;99.90
22065;DHT22;11197;53.110;8.468;2023-10-13T14:46:59;20.80;99.90
22065;DHT22;11197;53.110;8.468;2023-10-13T14:49:25;20.80;99.90
22065;DHT22;11197;53.110;8.468;2023-10-13T14:51:51;20.80;99.90
22065;DHT22;11197;53.110;8.468;2023-10-13T14:54:17;20.80;99.90
22065;DHT22;11197;53.110;8.468;2023-10-13T14:56:42;20.80;99.90
22065;DHT22;11197;53.110;8.468;2023-10-13T14:59:11;20.80;99.90
22065;DHT22;11197;53.110;8.468;2023-10-13T15:01:43;20.80;99.90
22065;DHT22;11197;53.110;8.468;2023-10-13T15:04:09;20.80;99.90
22065;DHT22;11197;53.110;8.468;2023-10-13T15:06:34;20.70;99.90
22065;DHT22;11197;53.110;8.468;2023-10-13T15:09:00;20.60;99.90
22065;DHT22;11197;53.110;8.468;2023-10-13T15:11:27;20.60;99.90
22065;DHT22;11197;53.110;8.468;2023-10-13T15:14:02;20.60;99.90
22065;DHT22;11197;53.110;8.468;2023-10-13T15:16:28;20.60;99.90
22065;DHT22;11197;53.110;8.468;2023-10-13T15:18:53;20.60;99.90
22065;DHT22;11197;53.110;8.468;2023-10-13T15:21:24;20.60;99.90
22065;DHT22;11197;53.110;8.468;2023-10-13T15:24:03;20.60;99.90
22065;DHT22;11197;53.110;8.468;2023-10-13T15:26:47;20.60;99.90
22065;DHT22;11197;53.110;8.468;2023-10-13T15:29:19;20.50;99.90
22065;DHT22;11197;53.110;8.468;2023-10-13T15:31:52;20.40;99.90
22065;DHT22;11197;53.110;8.468;2023-10-13T15:34:30;20.40;99.90
22065;DHT22;11197;53.110;8.468;2023-10-13T15:36:57;20.30;99.90
22065;DHT22;11197;53.110;8.468;2023-10-13T15:39:23;20.30;99.90
22065;DHT22;11197;53.110;8.468;2023-10-13T15:41:52;20.20;99.90
22065;DHT22;11197;53.110;8.468;2023-10-13T15:44:19;20.20;99.90
22065;DHT22;11197;53.110;8.468;2023-10-13T15:46:46;20.10;99.90
22065;DHT22;11197;53.110;8.468;2023-10-13T15:49:15;20.10;99.90
22065;DHT22;11197;53.110;8.468;2023-10-13T15:51:42;20.10;99.90
22065;DHT22;11197;53.110;8.468;2023-10-13T15:54:07;20.00;99.90
22065;DHT22;11197;53.110;8.468;2023-10-13T15:56:48;20.00;99.90
22065;DHT22;11197;53.110;8.468;2023-10-13T15:59:15;19.90;99.90
22065;DHT22;11197;53.110;8.468;2023-10-13T16:01:41;19.80;99.90
22065;DHT22;11197;53.110;8.468;2023-10-13T16:04:07;19.80;99.90
22065;DHT22;11197;53.110;8.468;2023-10-13T16:06:38;19.70;99.90
22065;DHT22;11197;53.110;8.468;2023-10-13T16:09:04;19.60;99.90
22065;DHT22;11197;53.110;8.468;2023-10-13T16:11:42;19.50;99.90
22065;DHT22;11197;53.110;8.468;2023-10-13T16:14:09;19.40;99.90
22065;DHT22;11197;53.110;8.468;2023-10-13T16:16:48;19.40;99.90
22065;DHT22;11197;53.110;8.468;2023-10-13T16:19:15;19.30;99.90
22065;DHT22;11197;53.110;8.468;2023-10-13T16:21:46;19.20;99.90
22065;DHT22;11197;53.110;8.468;2023-10-13T16:24:12;19.20;99.90
22065;DHT22;11197;53.110;8.468;2023-10-13T16:26:44;19.20;99.90
22065;DHT22;11197;53.110;8.468;2023-10-13T16:29:10;19.20;99.90
22065;DHT22;11197;53.110;8.468;2023-10-13T16:31:36;19.10;99.90
22065;DHT22;11197;53.110;8.468;2023-10-13T16:34:01;19.10;99.90
22065;DHT22;11197;53.110;8.468;2023-10-13T16:36:31;19.10;99.90
22065;DHT22;11197;53.110;8.468;2023-10-13T16:38:57;19.00;99.90